Time;durP1;ratioP1;P1;durP2;ratioP2;P2;SDS_P1;SDS_P2;PMS_P1;PMS_P2;Temp;Humidity;BMP_temperature;BMP_pressure;BME280_temperature;BME280_humidity;BME280_pressure;Samples;Min_cycle;Max_cycle;Signal;HPM_P1;HPM_P2
2022/10/25 00:02:14;;;;;;;36.33;21.80;;;;;;;;;;4915266;29;20139;-68
2022/10/25 00:04:41;;;;;;;38.80;22.15;;;;;;;;;;4916657;29;20048;-68
2022/10/25 00:07:09;;;;;;;40.03;21.98;;;;;;;;;;4915200;29;20566;-68
2022/10/25 00:09:36;;;;;;;34.15;20.67;;;;;;;;;;4916386;29;20534;-68
2022/10/25 00:12:04;;;;;;;41.08;21.33;;;;;;;;;;4916406;29;20546;-68
2022/10/25 00:14:32;;;;;;;38.20;21.55;;;;;;;;;;4916400;29;20048;-68
2022/10/25 00:16:59;;;;;;;40.65;21.75;;;;;;;;;;4916557;29;20040;-68
2022/10/25 00:19:27;;;;;;;37.97;22.05;;;;;;;;;;4916685;29;20099;-68
2022/10/25 00:21:54;;;;;;;37.53;21.48;;;;;;;;;;4916327;29;20127;-68
2022/10/25 00:24:22;;;;;;;39.13;21.27;;;;;;;;;;4916355;29;20040;-68
2022/10/25 00:26:49;;;;;;;33.88;20.48;;;;;;;;;;4916359;29;20078;-68
2022/10/25 00:29:17;;;;;;;36.40;19.95;;;;;;;;;;4916161;29;20050;-68
2022/10/25 00:31:44;;;;;;;39.67;21.35;;;;;;;;;;4915069;29;20414;-68
2022/10/25 00:34:12;;;;;;;36.92;21.50;;;;;;;;;;4916449;29;20072;-68
2022/10/25 00:36:39;;;;;;;35.92;21.65;;;;;;;;;;4916242;29;20071;-68
2022/10/25 00:39:06;;;;;;;41.72;21.75;;;;;;;;;;4916244;29;20044;-68
2022/10/25 00:41:34;;;;;;;37.28;22.17;;;;;;;;;;4916553;29;20124;-68
2022/10/25 00:44:20;;;;;;;36.75;20.88;;;;;;;;;;4919943;29;20491;-68
2022/10/25 00:46:48;;;;;;;40.65;21.65;;;;;;;;;;4919894;29;20056;-68
2022/10/25 00:49:18;;;;;;;42.80;23.00;;;;;;;;;;4920053;29;20554;-68
2022/10/25 00:51:47;;;;;;;41.50;22.13;;;;;;;;;;4919817;29;20123;-68
2022/10/25 00:54:16;;;;;;;46.00;23.25;;;;;;;;;;4920158;29;20047;-68
2022/10/25 00:56:46;;;;;;;44.28;22.73;;;;;;;;;;4919777;29;20044;-68
2022/10/25 00:59:16;;;;;;;40.55;21.63;;;;;;;;;;4919968;29;20055;-68
2022/10/25 01:01:43;;;;;;;41.42;21.60;;;;;;;;;;4919718;29;20044;-68
2022/10/25 01:04:12;;;;;;;35.83;21.20;;;;;;;;;;4919669;29;20527;-68
2022/10/25 01:06:41;;;;;;;40.40;21.52;;;;;;;;;;4919491;29;20036;-68
2022/10/25 01:09:10;;;;;;;41.28;22.13;;;;;;;;;;4919630;29;20494;-68
2022/10/25 01:11:37;;;;;;;40.60;22.58;;;;;;;;;;4919485;29;20099;-68
2022/10/25 01:14:07;;;;;;;44.78;23.15;;;;;;;;;;4919469;29;20132;-68
2022/10/25 01:16:37;;;;;;;39.75;21.55;;;;;;;;;;4919531;29;20510;-68
2022/10/25 01:19:21;;;;;;;45.00;23.95;;;;;;;;;;4919549;29;20051;-68
2022/10/25 01:21:51;;;;;;;47.33;23.40;;;;;;;;;;4919179;29;20048;-68
2022/10/25 01:24:31;;;;;;;45.08;23.02;;;;;;;;;;4919906;29;20443;-69
2022/10/25 01:27:11;;;;;;;45.42;23.33;;;;;;;;;;4921527;29;20051;-69
2022/10/25 01:29:44;;;;;;;43.05;21.63;;;;;;;;;;4919517;29;20051;-68
2022/10/25 01:32:17;;;;;;;45.58;20.73;;;;;;;;;;4918953;29;20071;-68
2022/10/25 01:34:51;;;;;;;42.00;23.00;;;;;;;;;;4918994;29;20036;-68
2022/10/25 01:37:39;;;;;;;37.97;21.80;;;;;;;;;;4918973;29;20044;-68
2022/10/25 01:40:11;;;;;;;39.03;21.15;;;;;;;;;;4912356;29;20506;-68
2022/10/25 01:42:44;;;;;;;38.88;22.30;;;;;;;;;;4918944;29;20048;-68
2022/10/25 01:45:19;;;;;;;39.90;20.85;;;;;;;;;;4918934;29;20048;-68
2022/10/25 01:47:49;;;;;;;37.28;21.40;;;;;;;;;;4918866;29;20051;-68
2022/10/25 01:50:27;;;;;;;42.40;21.85;;;;;;;;;;4918794;29;20044;-68
2022/10/25 01:52:55;;;;;;;41.00;21.92;;;;;;;;;;4918517;29;20044;-68
2022/10/25 01:55:26;;;;;;;37.58;21.33;;;;;;;;;;4918264;29;20071;-68
2022/10/25 01:58:03;;;;;;;32.63;20.27;;;;;;;;;;4918863;29;20458;-68
2022/10/25 02:00:34;;;;;;;34.47;20.33;;;;;;;;;;4918682;29;20078;-68
2022/10/25 02:03:04;;;;;;;38.10;20.45;;;;;;;;;;4918632;29;20067;-68
2022/10/25 02:05:34;;;;;;;34.50;20.05;;;;;;;;;;4918908;29;20376;-68
2022/10/25 02:08:05;;;;;;;35.05;20.15;;;;;;;;;;4918533;29;20044;-68
2022/10/25 02:10:56;;;;;;;33.63;19.77;;;;;;;;;;4918490;29;20052;-68
2022/10/25 02:13:42;;;;;;;39.70;20.85;;;;;;;;;;4918422;29;20040;-68
2022/10/25 02:16:16;;;;;;;31.25;19.33;;;;;;;;;;4918475;29;20495;-68
2022/10/25 02:18:46;;;;;;;34.13;19.13;;;;;;;;;;4918562;29;20040;-68
2022/10/25 02:21:14;;;;;;;37.00;20.75;;;;;;;;;;4918357;29;20370;-68
2022/10/25 02:23:42;;;;;;;38.20;21.05;;;;;;;;;;4916891;29;20122;-68
2022/10/25 02:26:10;;;;;;;32.78;19.17;;;;;;;;;;4918446;29;20509;-68
2022/10/25 02:28:39;;;;;;;36.25;20.20;;;;;;;;;;4918155;29;20063;-68
2022/10/25 02:31:08;;;;;;;43.75;21.75;;;;;;;;;;4917973;29;20123;-68
2022/10/25 02:33:36;;;;;;;40.00;22.10;;;;;;;;;;4917993;29;20044;-68
2022/10/25 02:36:06;;;;;;;40.45;22.23;;;;;;;;;;4916788;29;20464;-68
2022/10/25 02:38:34;;;;;;;39.80;22.58;;;;;;;;;;4918031;29;20491;-68
2022/10/25 02:41:03;;;;;;;39.60;21.90;;;;;;;;;;4918174;29;20044;-68
2022/10/25 02:43:31;;;;;;;37.53;22.50;;;;;;;;;;4918144;29;20423;-68
2022/10/25 02:45:58;;;;;;;40.45;22.00;;;;;;;;;;4917847;29;20534;-68
2022/10/25 02:48:26;;;;;;;39.20;23.40;;;;;;;;;;4917816;29;20076;-68
2022/10/25 02:50:53;;;;;;;41.88;23.40;;;;;;;;;;4917807;29;20499;-68
2022/10/25 02:53:20;;;;;;;40.72;22.20;;;;;;;;;;4917637;29;20059;-68
2022/10/25 02:55:48;;;;;;;42.35;22.80;;;;;;;;;;4917727;29;20076;-68
2022/10/25 02:58:15;;;;;;;46.20;23.42;;;;;;;;;;4917669;29;20558;-68
2022/10/25 03:00:43;;;;;;;42.53;23.55;;;;;;;;;;4917604;29;20558;-68
2022/10/25 03:03:10;;;;;;;41.85;23.60;;;;;;;;;;4917660;29;20457;-68
2022/10/25 03:05:37;;;;;;;43.22;23.10;;;;;;;;;;4917440;29;20050;-68
2022/10/25 03:08:05;;;;;;;45.35;23.60;;;;;;;;;;4917367;29;20159;-68
2022/10/25 03:10:32;;;;;;;41.05;23.27;;;;;;;;;;4917409;29;20047;-68
2022/10/25 03:12:59;;;;;;;43.45;22.92;;;;;;;;;;4917410;29;20066;-68
2022/10/25 03:15:27;;;;;;;46.72;23.83;;;;;;;;;;4916180;29;20099;-68
2022/10/25 03:17:54;;;;;;;44.80;23.77;;;;;;;;;;4917317;29;20104;-68
2022/10/25 03:20:22;;;;;;;44.83;23.63;;;;;;;;;;4917318;29;20119;-68
2022/10/25 03:22:49;;;;;;;47.60;23.52;;;;;;;;;;4917067;29;20055;-68
2022/10/25 03:25:16;;;;;;;38.83;23.05;;;;;;;;;;4916986;29;20083;-68
2022/10/25 03:27:44;;;;;;;42.17;23.33;;;;;;;;;;4917146;29;20462;-68
2022/10/25 03:30:13;;;;;;;41.67;22.90;;;;;;;;;;4916959;29;20096;-68
2022/10/25 03:32:40;;;;;;;44.10;23.15;;;;;;;;;;4917194;29;20123;-68
2022/10/25 03:35:08;;;;;;;40.67;22.63;;;;;;;;;;4916812;29;20099;-68
2022/10/25 03:37:35;;;;;;;44.63;23.00;;;;;;;;;;4917210;29;20040;-68
2022/10/25 03:40:03;;;;;;;45.05;22.85;;;;;;;;;;4916565;29;20044;-68
2022/10/25 03:42:30;;;;;;;45.03;24.67;;;;;;;;;;4917168;29;20072;-68
2022/10/25 03:44:57;;;;;;;44.13;23.77;;;;;;;;;;4916822;29;20062;-68
2022/10/25 03:47:25;;;;;;;45.35;24.48;;;;;;;;;;4916989;29;20099;-68
2022/10/25 03:49:52;;;;;;;50.15;25.73;;;;;;;;;;4915262;29;20100;-68
2022/10/25 03:52:20;;;;;;;41.17;23.92;;;;;;;;;;4915377;29;20495;-68
2022/10/25 03:54:47;;;;;;;39.17;22.95;;;;;;;;;;4916657;29;20063;-68
2022/10/25 03:57:14;;;;;;;40.78;21.42;;;;;;;;;;4916810;29;20233;-68
2022/10/25 03:59:43;;;;;;;43.55;22.55;;;;;;;;;;4916510;29;20043;-68
2022/10/25 04:02:11;;;;;;;35.80;21.15;;;;;;;;;;4916542;29;20044;-67
2022/10/25 04:04:39;;;;;;;40.00;21.70;;;;;;;;;;4916515;29;20048;-68
2022/10/25 04:07:06;;;;;;;39.50;22.52;;;;;;;;;;4916498;29;20044;-68
2022/10/25 04:09:34;;;;;;;46.28;22.75;;;;;;;;;;4916476;29;20447;-68
2022/10/25 04:12:01;;;;;;;45.58;24.17;;;;;;;;;;4916464;29;20379;-68
2022/10/25 04:14:28;;;;;;;48.58;23.33;;;;;;;;;;4916439;29;20091;-68
2022/10/25 04:16:56;;;;;;;45.45;23.83;;;;;;;;;;4946041;28;20044;-68
2022/10/25 04:19:23;;;;;;;42.65;22.10;;;;;;;;;;4916311;29;20431;-68
2022/10/25 04:21:51;;;;;;;41.38;22.95;;;;;;;;;;4916350;29;20048;-68
2022/10/25 04:24:18;;;;;;;35.53;22.02;;;;;;;;;;4916332;29;20079;-68
2022/10/25 04:26:46;;;;;;;44.08;23.10;;;;;;;;;;4916158;29;20502;-68
2022/10/25 04:29:14;;;;;;;42.15;23.23;;;;;;;;;;4914456;29;20458;-68
2022/10/25 04:31:42;;;;;;;44.13;23.60;;;;;;;;;;4915018;29;20502;-68
2022/10/25 04:34:09;;;;;;;49.20;24.27;;;;;;;;;;4915032;29;20084;-68
2022/10/25 04:36:37;;;;;;;42.45;22.85;;;;;;;;;;4945272;29;20616;-68
2022/10/25 04:39:05;;;;;;;44.55;22.83;;;;;;;;;;4915388;29;20072;-68
2022/10/25 04:41:33;;;;;;;43.95;22.90;;;;;;;;;;4915322;29;20104;-68
2022/10/25 04:44:00;;;;;;;42.88;23.23;;;;;;;;;;4916414;29;20059;-68
2022/10/25 04:46:27;;;;;;;48.85;23.67;;;;;;;;;;4914390;29;20071;-68
2022/10/25 04:48:55;;;;;;;45.72;23.55;;;;;;;;;;4914233;29;20048;-68
2022/10/25 04:51:22;;;;;;;40.00;23.15;;;;;;;;;;4944280;29;20092;-68
2022/10/25 04:53:52;;;;;;;71.85;35.50;;;;;;;;;;4913966;29;20052;-68
2022/10/25 04:56:19;;;;;;;125.40;63.83;;;;;;;;;;4913590;29;20138;-68
2022/10/25 04:58:47;;;;;;;144.82;79.78;;;;;;;;;;4914164;29;20052;-68
2022/10/25 05:01:16;;;;;;;154.93;79.15;;;;;;;;;;4915294;29;20151;-68
2022/10/25 05:03:44;;;;;;;133.20;65.68;;;;;;;;;;4915926;29;20514;-68
2022/10/25 05:06:13;;;;;;;85.18;41.47;;;;;;;;;;4916050;29;20064;-68
2022/10/25 05:08:41;;;;;;;69.95;39.83;;;;;;;;;;4914758;29;20052;-68
2022/10/25 05:11:09;;;;;;;102.30;49.97;;;;;;;;;;4914999;29;20178;-68
2022/10/25 05:13:38;;;;;;;79.57;36.67;;;;;;;;;;4916065;29;20040;-68
2022/10/25 05:16:06;;;;;;;36.58;21.02;;;;;;;;;;4915950;29;20135;-68
2022/10/25 05:18:34;;;;;;;42.50;20.95;;;;;;;;;;4915825;29;20372;-68
2022/10/25 05:21:03;;;;;;;37.22;20.83;;;;;;;;;;4915865;29;20071;-68
2022/10/25 05:23:31;;;;;;;37.75;20.52;;;;;;;;;;4915768;29;20040;-68
2022/10/25 05:26:02;;;;;;;46.78;20.83;;;;;;;;;;4917164;29;20076;-69
2022/10/25 05:28:30;;;;;;;39.70;21.00;;;;;;;;;;4919097;29;20055;-69
2022/10/25 05:30:57;;;;;;;45.60;23.67;;;;;;;;;;4921015;29;20394;-68
2022/10/25 05:33:24;;;;;;;117.18;91.35;;;;;;;;;;4920258;29;20048;-68
2022/10/25 05:35:52;;;;;;;104.80;76.90;;;;;;;;;;4919231;29;20120;-68
2022/10/25 05:38:19;;;;;;;66.35;40.38;;;;;;;;;;4918920;29;20063;-68
2022/10/25 05:40:53;;;;;;;64.47;33.30;;;;;;;;;;4919316;29;20048;-69
2022/10/25 05:43:21;;;;;;;50.88;26.13;;;;;;;;;;4918894;29;20059;-69
2022/10/25 05:45:48;;;;;;;58.70;27.05;;;;;;;;;;4919195;29;20123;-69
2022/10/25 05:48:16;;;;;;;59.53;27.10;;;;;;;;;;4918856;29;20052;-68
2022/10/25 05:50:44;;;;;;;63.05;30.05;;;;;;;;;;4919112;29;20131;-69
2022/10/25 05:53:11;;;;;;;71.32;35.95;;;;;;;;;;4917612;29;20103;-70
2022/10/25 05:55:38;;;;;;;62.00;37.47;;;;;;;;;;4918855;29;20570;-69
2022/10/25 05:58:06;;;;;;;78.70;44.42;;;;;;;;;;4918838;29;20486;-69
2022/10/25 06:00:33;;;;;;;78.53;38.92;;;;;;;;;;4918725;29;20499;-68
2022/10/25 06:03:01;;;;;;;82.00;39.47;;;;;;;;;;4918647;29;20512;-68
2022/10/25 06:05:29;;;;;;;82.20;38.50;;;;;;;;;;4917361;29;20127;-68
2022/10/25 06:07:56;;;;;;;83.35;36.85;;;;;;;;;;4918578;29;20150;-68
2022/10/25 06:10:24;;;;;;;78.40;35.60;;;;;;;;;;4918545;29;20570;-68
2022/10/25 06:12:51;;;;;;;70.15;35.75;;;;;;;;;;4918585;29;20040;-68
2022/10/25 06:15:18;;;;;;;85.00;37.25;;;;;;;;;;4918452;29;20048;-68
2022/10/25 06:17:46;;;;;;;77.63;35.35;;;;;;;;;;4918372;29;20443;-68
2022/10/25 06:20:13;;;;;;;70.38;34.70;;;;;;;;;;4918316;29;20083;-69
2022/10/25 06:22:41;;;;;;;67.03;35.60;;;;;;;;;;4918316;29;20057;-68
2022/10/25 06:25:08;;;;;;;82.63;33.50;;;;;;;;;;4918365;29;20048;-68
2022/10/25 06:27:36;;;;;;;71.03;31.25;;;;;;;;;;4918243;29;20111;-68
2022/10/25 06:30:04;;;;;;;63.08;29.95;;;;;;;;;;4918133;29;20521;-69
2022/10/25 06:32:31;;;;;;;61.60;26.20;;;;;;;;;;4918007;29;20059;-68
2022/10/25 06:34:58;;;;;;;50.30;24.55;;;;;;;;;;4917850;29;20123;-69
2022/10/25 06:37:26;;;;;;;69.38;25.40;;;;;;;;;;4917867;29;20044;-69
2022/10/25 06:39:53;;;;;;;47.40;24.25;;;;;;;;;;4917573;29;20502;-67
2022/10/25 06:42:20;;;;;;;48.45;23.98;;;;;;;;;;4917942;29;20055;-68
2022/10/25 06:44:48;;;;;;;42.88;22.23;;;;;;;;;;4918015;29;20087;-68
2022/10/25 06:47:15;;;;;;;45.65;21.95;;;;;;;;;;4917907;29;20444;-69
2022/10/25 06:49:45;;;;;;;44.00;19.63;;;;;;;;;;4918021;29;20040;-68
2022/10/25 06:52:12;;;;;;;43.45;20.70;;;;;;;;;;4917704;29;20048;-68
2022/10/25 06:54:40;;;;;;;46.28;18.85;;;;;;;;;;4917789;29;20126;-68
2022/10/25 06:57:07;;;;;;;54.42;18.75;;;;;;;;;;4917777;29;20153;-69
2022/10/25 06:59:35;;;;;;;54.05;18.08;;;;;;;;;;4917764;29;20082;-68
2022/10/25 07:02:02;;;;;;;41.40;18.13;;;;;;;;;;4917582;29;20055;-68
2022/10/25 07:04:31;;;;;;;39.85;15.57;;;;;;;;;;4918065;29;20233;-69
2022/10/25 07:06:59;;;;;;;43.40;15.77;;;;;;;;;;4917822;29;20044;-69
2022/10/25 07:09:26;;;;;;;49.67;16.92;;;;;;;;;;4917413;29;20507;-69
2022/10/25 07:11:53;;;;;;;62.17;16.90;;;;;;;;;;4917261;29;20079;-69
2022/10/25 07:14:21;;;;;;;40.75;15.52;;;;;;;;;;4917247;29;20417;-68
2022/10/25 07:16:48;;;;;;;41.90;14.98;;;;;;;;;;4917254;29;20570;-68
2022/10/25 07:19:16;;;;;;;35.95;14.05;;;;;;;;;;4917506;29;20048;-68
2022/10/25 07:21:44;;;;;;;37.95;13.60;;;;;;;;;;4917277;29;20048;-68
2022/10/25 07:24:11;;;;;;;42.45;13.38;;;;;;;;;;4917108;29;20044;-68
2022/10/25 07:26:39;;;;;;;31.00;13.50;;;;;;;;;;4917050;29;20044;-68
2022/10/25 07:29:07;;;;;;;32.80;13.45;;;;;;;;;;4916998;29;20047;-67
2022/10/25 07:31:36;;;;;;;27.83;12.63;;;;;;;;;;4916883;29;20139;-67
2022/10/25 07:34:04;;;;;;;28.15;11.38;;;;;;;;;;4916936;29;20096;-69
2022/10/25 07:36:32;;;;;;;30.25;12.20;;;;;;;;;;4915793;29;20067;-67
2022/10/25 07:38:59;;;;;;;26.30;11.63;;;;;;;;;;4917073;29;20035;-67
2022/10/25 07:41:27;;;;;;;21.98;11.35;;;;;;;;;;4916865;29;20063;-67
2022/10/25 07:43:54;;;;;;;29.17;11.45;;;;;;;;;;4916971;29;20075;-67
2022/10/25 07:46:22;;;;;;;23.75;10.55;;;;;;;;;;4916792;29;20561;-68
2022/10/25 07:48:51;;;;;;;22.40;10.40;;;;;;;;;;4916796;29;20048;-68
2022/10/25 07:51:19;;;;;;;17.17;9.63;;;;;;;;;;4915890;29;20051;-69
2022/10/25 07:53:46;;;;;;;17.70;8.68;;;;;;;;;;4916896;29;20431;-67
2022/10/25 07:56:15;;;;;;;17.83;9.07;;;;;;;;;;4916489;29;20126;-67
2022/10/25 07:58:49;;;;;;;15.85;8.48;;;;;;;;;;4915512;29;20048;-68
2022/10/25 08:01:21;;;;;;;17.45;8.27;;;;;;;;;;4916565;29;20079;-67
2022/10/25 08:03:50;;;;;;;17.50;8.38;;;;;;;;;;4916738;29;20052;-67
2022/10/25 08:06:17;;;;;;;13.73;7.93;;;;;;;;;;4916603;29;20046;-67
2022/10/25 08:08:44;;;;;;;15.27;7.70;;;;;;;;;;4916369;29;20051;-68
2022/10/25 08:11:12;;;;;;;16.90;8.45;;;;;;;;;;4916405;29;20044;-68
2022/10/25 08:13:39;;;;;;;11.15;7.65;;;;;;;;;;4916504;29;20455;-68
2022/10/25 08:16:07;;;;;;;13.70;7.63;;;;;;;;;;4917202;29;20072;-69
2022/10/25 08:18:34;;;;;;;19.85;8.10;;;;;;;;;;4917295;29;20375;-69
2022/10/25 08:21:02;;;;;;;28.95;8.65;;;;;;;;;;4916676;29;20074;-67
2022/10/25 08:23:31;;;;;;;15.98;8.10;;;;;;;;;;4916311;29;20099;-67
2022/10/25 08:25:59;;;;;;;15.10;8.10;;;;;;;;;;4916672;29;20056;-67
2022/10/25 08:28:26;;;;;;;15.25;9.23;;;;;;;;;;4916245;29;20051;-67
2022/10/25 08:30:54;;;;;;;23.67;10.70;;;;;;;;;;4916176;29;20455;-68
2022/10/25 08:33:22;;;;;;;33.60;16.63;;;;;;;;;;4916346;29;20131;-68
2022/10/25 08:35:49;;;;;;;47.50;22.15;;;;;;;;;;4916229;29;20052;-68
2022/10/25 08:38:17;;;;;;;31.63;15.05;;;;;;;;;;4916359;29;20044;-68
2022/10/25 08:40:48;;;;;;;29.55;13.38;;;;;;;;;;4915022;29;20079;-68
2022/10/25 08:43:19;;;;;;;19.50;9.15;;;;;;;;;;4916245;29;20067;-68
2022/10/25 08:45:46;;;;;;;23.67;11.15;;;;;;;;;;4916135;29;20052;-69
2022/10/25 08:48:17;;;;;;;17.73;8.85;;;;;;;;;;4916173;29;20047;-69
2022/10/25 08:50:46;;;;;;;13.43;6.68;;;;;;;;;;4916446;29;20055;-68
2022/10/25 08:53:17;;;;;;;18.42;7.93;;;;;;;;;;4916300;29;20491;-68
2022/10/25 08:55:46;;;;;;;14.77;7.65;;;;;;;;;;4916362;29;20060;-68
2022/10/25 08:58:36;;;;;;;15.38;7.40;;;;;;;;;;4916385;29;20112;-69
2022/10/25 09:01:13;;;;;;;14.40;7.28;;;;;;;;;;4916054;29;20406;-68
2022/10/25 09:03:41;;;;;;;16.73;7.22;;;;;;;;;;4918048;29;20083;-68
2022/10/25 09:06:27;;;;;;;21.35;8.95;;;;;;;;;;4920005;29;20123;-68
2022/10/25 09:09:11;;;;;;;19.58;8.35;;;;;;;;;;4919706;29;20099;-68
2022/10/25 09:11:45;;;;;;;17.35;7.90;;;;;;;;;;4919668;29;20123;-68
2022/10/25 09:14:35;;;;;;;17.85;7.22;;;;;;;;;;4919535;29;20045;-68
2022/10/25 09:17:22;;;;;;;15.50;6.93;;;;;;;;;;4883862;29;20104;-68
2022/10/25 09:19:50;;;;;;;13.30;6.05;;;;;;;;;;4919491;29;20076;-68
2022/10/25 09:22:17;;;;;;;19.35;6.95;;;;;;;;;;4918277;29;20075;-68
2022/10/25 09:24:57;;;;;;;16.48;7.10;;;;;;;;;;4919259;29;20048;-68
2022/10/25 09:27:24;;;;;;;14.52;7.50;;;;;;;;;;4919504;29;20048;-68
2022/10/25 09:29:58;;;;;;;16.10;7.82;;;;;;;;;;4919347;29;20418;-69
2022/10/25 09:32:37;;;;;;;19.67;7.97;;;;;;;;;;4919099;29;20067;-68
2022/10/25 09:35:27;;;;;;;16.45;7.93;;;;;;;;;;4919103;29;20125;-68
2022/10/25 09:37:57;;;;;;;18.55;8.52;;;;;;;;;;4908699;29;20414;-68
2022/10/25 09:40:27;;;;;;;17.55;8.43;;;;;;;;;;4919050;29;20085;-68
2022/10/25 09:42:56;;;;;;;18.30;8.48;;;;;;;;;;4917912;29;20111;-68
2022/10/25 09:45:23;;;;;;;18.20;8.32;;;;;;;;;;4919056;29;20050;-68
2022/10/25 09:47:51;;;;;;;21.00;8.65;;;;;;;;;;4919015;29;20509;-68
2022/10/25 09:50:24;;;;;;;15.80;8.52;;;;;;;;;;4919277;29;20447;-68
2022/10/25 09:52:57;;;;;;;23.77;9.27;;;;;;;;;;4918004;29;20051;-68
2022/10/25 09:55:32;;;;;;;19.38;9.07;;;;;;;;;;4919223;29;20055;-68
2022/10/25 09:58:00;;;;;;;20.73;9.70;;;;;;;;;;4918856;29;20546;-68
2022/10/25 10:00:27;;;;;;;26.80;10.20;;;;;;;;;;4918940;29;20529;-68
2022/10/25 10:02:55;;;;;;;18.88;9.85;;;;;;;;;;4918911;29;20407;-68
2022/10/25 10:05:23;;;;;;;17.25;9.75;;;;;;;;;;4918748;29;20048;-68
2022/10/25 10:07:50;;;;;;;23.85;11.68;;;;;;;;;;4918832;29;20491;-68
2022/10/25 10:10:29;;;;;;;19.30;11.10;;;;;;;;;;4918608;29;20068;-67
2022/10/25 10:13:03;;;;;;;22.65;11.45;;;;;;;;;;4918728;29;20080;-68
2022/10/25 10:15:37;;;;;;;28.02;11.73;;;;;;;;;;4917852;29;20052;-68
2022/10/25 10:18:21;;;;;;;25.80;11.10;;;;;;;;;;4918457;29;20051;-68
2022/10/25 10:21:08;;;;;;;29.00;11.55;;;;;;;;;;4918541;29;20293;-69
2022/10/25 10:23:38;;;;;;;21.02;11.57;;;;;;;;;;4908846;29;20059;-69
2022/10/25 10:26:09;;;;;;;21.88;10.30;;;;;;;;;;4918273;29;20043;-68
2022/10/25 10:28:37;;;;;;;24.20;10.15;;;;;;;;;;4918107;29;20044;-68
2022/10/25 10:31:07;;;;;;;26.88;9.80;;;;;;;;;;4918020;29;20051;-67
2022/10/25 10:33:34;;;;;;;21.27;9.57;;;;;;;;;;4918085;29;20048;-67
2022/10/25 10:36:20;;;;;;;19.77;9.05;;;;;;;;;;4918238;29;20048;-67
2022/10/25 10:38:48;;;;;;;19.13;9.07;;;;;;;;;;4918247;29;20444;-68
2022/10/25 10:41:22;;;;;;;16.45;9.30;;;;;;;;;;4918122;29;20551;-68
2022/10/25 10:43:49;;;;;;;18.40;9.70;;;;;;;;;;4917986;29;20126;-68
2022/10/25 10:46:18;;;;;;;17.73;9.90;;;;;;;;;;4917809;29;20044;-68
2022/10/25 10:48:52;;;;;;;15.63;9.23;;;;;;;;;;4917861;29;20036;-68
2022/10/25 10:51:21;;;;;;;18.85;9.13;;;;;;;;;;4917798;29;20047;-67
2022/10/25 10:54:34;;;;;;;15.98;8.68;;;;;;;;;;4917668;29;20052;-67
2022/10/25 10:57:04;;;;;;;16.73;7.88;;;;;;;;;;4915372;29;20064;-67
2022/10/25 10:59:31;;;;;;;15.65;7.43;;;;;;;;;;4917763;29;20447;-67
2022/10/25 11:02:10;;;;;;;17.48;7.72;;;;;;;;;;4917618;29;20043;-67
2022/10/25 11:04:48;;;;;;;14.57;7.10;;;;;;;;;;4917476;29;20084;-67
2022/10/25 11:07:30;;;;;;;17.13;7.07;;;;;;;;;;4917468;29;20051;-67
2022/10/25 11:10:16;;;;;;;18.02;7.75;;;;;;;;;;4917508;29;20044;-68
2022/10/25 11:12:43;;;;;;;17.40;7.28;;;;;;;;;;4917388;29;20066;-68
2022/10/25 11:15:11;;;;;;;16.75;8.45;;;;;;;;;;4917386;29;20044;-68
2022/10/25 11:17:58;;;;;;;14.75;7.43;;;;;;;;;;4917487;29;20376;-67
2022/10/25 11:20:46;;;;;;;24.52;8.48;;;;;;;;;;4917294;29;20052;-68
2022/10/25 11:23:21;;;;;;;16.88;7.22;;;;;;;;;;4917145;29;20048;-68
2022/10/25 11:25:56;;;;;;;14.27;6.85;;;;;;;;;;4916632;29;20044;-68
2022/10/25 11:28:26;;;;;;;15.55;7.05;;;;;;;;;;4916601;29;20470;-68
2022/10/25 11:31:04;;;;;;;18.40;7.68;;;;;;;;;;4916974;29;20060;-68
2022/10/25 11:33:34;;;;;;;15.02;7.68;;;;;;;;;;4917073;29;20036;-68
2022/10/25 11:36:05;;;;;;;17.70;8.10;;;;;;;;;;4916974;29;20040;-68
2022/10/25 11:38:35;;;;;;;16.45;8.35;;;;;;;;;;4917016;29;20513;-68
2022/10/25 11:41:18;;;;;;;13.35;8.05;;;;;;;;;;4917111;29;20044;-68
2022/10/25 11:43:51;;;;;;;22.30;7.85;;;;;;;;;;4916891;29;20051;-68
2022/10/25 11:46:19;;;;;;;16.52;8.48;;;;;;;;;;4916814;29;20040;-68
2022/10/25 11:48:49;;;;;;;20.13;8.27;;;;;;;;;;4916492;29;20143;-68
2022/10/25 11:51:32;;;;;;;24.30;8.73;;;;;;;;;;4916771;29;20055;-68
2022/10/25 11:54:19;;;;;;;17.98;8.10;;;;;;;;;;4916770;29;20483;-68
2022/10/25 11:56:49;;;;;;;27.77;8.25;;;;;;;;;;4915311;29;20052;-68
2022/10/25 11:59:40;;;;;;;16.50;7.72;;;;;;;;;;4916554;29;20040;-68
2022/10/25 12:02:07;;;;;;;18.58;7.97;;;;;;;;;;4916646;29;20516;-68
2022/10/25 12:04:37;;;;;;;22.45;8.27;;;;;;;;;;4916553;29;20066;-68
2022/10/25 12:07:05;;;;;;;17.23;7.68;;;;;;;;;;4916605;29;20414;-68
2022/10/25 12:09:57;;;;;;;17.77;7.57;;;;;;;;;;4916793;29;20111;-68
2022/10/25 12:12:39;;;;;;;24.23;8.25;;;;;;;;;;4916487;29;20071;-68
2022/10/25 12:15:12;;;;;;;23.38;7.57;;;;;;;;;;4916504;29;20435;-68
2022/10/25 12:17:39;;;;;;;15.07;7.00;;;;;;;;;;4916243;29;20391;-68
2022/10/25 12:20:11;;;;;;;16.83;7.55;;;;;;;;;;4916406;29;20069;-68
2022/10/25 12:22:43;;;;;;;20.95;8.25;;;;;;;;;;4916476;29;20075;-68
2022/10/25 12:25:21;;;;;;;20.25;7.80;;;;;;;;;;4916317;29;20051;-68
2022/10/25 12:27:53;;;;;;;13.45;7.60;;;;;;;;;;4916282;29;20512;-68
2022/10/25 12:30:23;;;;;;;19.43;8.77;;;;;;;;;;4916185;29;20048;-68
2022/10/25 12:33:22;;;;;;;20.25;8.25;;;;;;;;;;4916159;29;20052;-68
2022/10/25 12:35:51;;;;;;;17.75;7.78;;;;;;;;;;4885121;29;20060;-68
2022/10/25 12:38:38;;;;;;;22.05;7.65;;;;;;;;;;4917867;29;20447;-68
2022/10/25 12:41:25;;;;;;;17.98;7.18;;;;;;;;;;4920226;29;20054;-68
2022/10/25 12:44:05;;;;;;;24.10;7.25;;;;;;;;;;4918888;29;20036;-68
2022/10/25 12:46:35;;;;;;;18.02;7.47;;;;;;;;;;4919987;29;20067;-68
2022/10/25 12:49:09;;;;;;;26.98;8.55;;;;;;;;;;4919934;29;20044;-68
2022/10/25 12:51:36;;;;;;;19.45;8.68;;;;;;;;;;4919867;29;20044;-68
2022/10/25 12:54:10;;;;;;;16.98;7.22;;;;;;;;;;4919961;29;20471;-68
2022/10/25 12:56:49;;;;;;;18.35;7.07;;;;;;;;;;4902851;29;20406;-68
2022/10/25 12:59:22;;;;;;;15.75;6.63;;;;;;;;;;4919728;29;20506;-67
2022/10/25 13:01:53;;;;;;;16.65;6.70;;;;;;;;;;4919586;29;20052;-68
2022/10/25 13:04:20;;;;;;;18.27;6.72;;;;;;;;;;4919854;29;20040;-68
2022/10/25 13:06:49;;;;;;;16.70;5.90;;;;;;;;;;4919836;29;20464;-68
2022/10/25 13:09:18;;;;;;;16.63;6.20;;;;;;;;;;4919657;29;20048;-68
2022/10/25 13:11:57;;;;;;;17.73;6.25;;;;;;;;;;4919671;29;20451;-68
2022/10/25 13:14:28;;;;;;;16.25;6.38;;;;;;;;;;4919686;29;20111;-68
2022/10/25 13:17:14;;;;;;;19.35;6.70;;;;;;;;;;4919538;29;20119;-68
2022/10/25 13:19:45;;;;;;;18.70;6.60;;;;;;;;;;4919588;29;20079;-68
2022/10/25 13:22:24;;;;;;;22.75;6.07;;;;;;;;;;4919487;29;20036;-68
2022/10/25 13:24:52;;;;;;;15.90;5.90;;;;;;;;;;4919694;29;20123;-68
2022/10/25 13:27:21;;;;;;;18.02;6.22;;;;;;;;;;4919402;29;20461;-68
2022/10/25 13:29:59;;;;;;;16.08;6.00;;;;;;;;;;4919225;29;20040;-68
2022/10/25 13:32:28;;;;;;;17.75;8.15;;;;;;;;;;4919041;29;20051;-68
2022/10/25 13:34:57;;;;;;;21.40;7.65;;;;;;;;;;4919166;29;20553;-68
2022/10/25 13:37:31;;;;;;;22.60;7.60;;;;;;;;;;4919139;29;20048;-67
2022/10/25 13:40:06;;;;;;;21.53;6.93;;;;;;;;;;4919211;29;20043;-68
2022/10/25 13:42:37;;;;;;;16.58;6.20;;;;;;;;;;4917865;29;20040;-67
2022/10/25 13:45:09;;;;;;;17.95;6.45;;;;;;;;;;4918998;29;20052;-67
2022/10/25 13:47:39;;;;;;;11.88;5.75;;;;;;;;;;4918930;29;20063;-67
2022/10/25 13:50:14;;;;;;;18.90;6.30;;;;;;;;;;4917850;29;20032;-67
2022/10/25 13:53:07;;;;;;;18.75;6.47;;;;;;;;;;4918772;29;20051;-67
2022/10/25 13:55:36;;;;;;;18.52;6.00;;;;;;;;;;4912407;29;20068;-67
2022/10/25 13:58:22;;;;;;;18.50;5.95;;;;;;;;;;4918699;29;20122;-67
2022/10/25 14:00:51;;;;;;;14.15;6.10;;;;;;;;;;4918590;29;20036;-67
2022/10/25 14:03:48;;;;;;;16.83;6.38;;;;;;;;;;4918630;29;20456;-68
2022/10/25 14:06:25;;;;;;;15.07;6.28;;;;;;;;;;4917977;29;20048;-68
2022/10/25 14:08:52;;;;;;;24.52;6.40;;;;;;;;;;4918067;29;20044;-68
2022/10/25 14:11:23;;;;;;;23.23;7.15;;;;;;;;;;4920462;29;20091;-68
2022/10/25 14:14:04;;;;;;;15.18;7.07;;;;;;;;;;4918265;29;20067;-68
2022/10/25 14:16:32;;;;;;;19.00;7.25;;;;;;;;;;4918320;29;20070;-69
2022/10/25 14:19:09;;;;;;;24.10;8.25;;;;;;;;;;4918481;29;20119;-69
2022/10/25 14:21:37;;;;;;;18.92;7.75;;;;;;;;;;4918162;29;20051;-68
2022/10/25 14:24:07;;;;;;;20.52;8.75;;;;;;;;;;4917001;29;20040;-68
2022/10/25 14:26:34;;;;;;;20.00;7.78;;;;;;;;;;4917988;29;20051;-68
2022/10/25 14:29:14;;;;;;;26.10;7.00;;;;;;;;;;4918031;29;20044;-68
2022/10/25 14:31:42;;;;;;;17.83;6.25;;;;;;;;;;4917908;29;20056;-68
2022/10/25 14:34:30;;;;;;;16.17;6.60;;;;;;;;;;4918045;29;20078;-68
2022/10/25 14:36:58;;;;;;;17.77;6.22;;;;;;;;;;4918114;29;20502;-68
2022/10/25 14:39:27;;;;;;;14.25;5.38;;;;;;;;;;4917906;29;20132;-68
2022/10/25 14:41:56;;;;;;;16.23;5.38;;;;;;;;;;4917786;29;20039;-68
2022/10/25 14:44:26;;;;;;;21.63;6.18;;;;;;;;;;4917904;29;20040;-67